createdAt,value
2019-05-21T00:00:14.286Z,19.48
2019-05-21T00:02:42.898Z,18.87
2019-05-21T00:05:11.583Z,18.92
2019-05-21T00:07:40.221Z,16.55
2019-05-21T00:10:09.779Z,16.87
2019-05-21T00:12:38.377Z,13.58
2019-05-21T00:15:07.346Z,14.05
2019-05-21T00:17:35.937Z,12.07
2019-05-21T00:20:06.273Z,11.55
2019-05-21T00:22:35.301Z,11.18
2019-05-21T00:25:05.677Z,11.95
2019-05-21T00:27:34.235Z,11.93
2019-05-21T00:30:39.553Z,11.22
2019-05-21T00:33:44.646Z,10.35
2019-05-21T00:36:49.721Z,9.75
2019-05-21T00:39:54.649Z,10.03
2019-05-21T00:42:32.337Z,10.48
2019-05-21T00:45:01.153Z,12.45
2019-05-21T00:47:30.167Z,12.00
2019-05-21T00:49:58.849Z,11.75
2019-05-21T00:52:27.475Z,10.88
2019-05-21T00:54:56.642Z,11.33
2019-05-21T00:57:25.211Z,10.28
2019-05-21T00:59:53.967Z,11.10
2019-05-21T01:02:22.594Z,11.75
2019-05-21T01:05:00.366Z,11.40
2019-05-21T01:07:21.431Z,10.32
2019-05-21T01:09:50.063Z,10.00
2019-05-21T01:12:18.661Z,7.78
2019-05-21T01:14:47.343Z,7.42
2019-05-21T01:17:15.934Z,8.75
2019-05-21T01:19:44.563Z,8.27
2019-05-21T01:22:13.339Z,8.18
2019-05-21T01:24:41.916Z,8.35
2019-05-21T01:27:10.498Z,8.60
2019-05-21T01:29:39.102Z,8.43
2019-05-21T01:32:07.699Z,8.23
2019-05-21T01:34:36.465Z,10.28
2019-05-21T01:37:05.182Z,7.75
2019-05-21T01:39:33.819Z,9.33
2019-05-21T01:42:02.487Z,8.25
2019-05-21T01:44:31.053Z,8.63
2019-05-21T01:46:59.659Z,9.78
2019-05-21T01:49:28.271Z,9.20
2019-05-21T01:51:56.955Z,10.00
2019-05-21T01:54:25.577Z,8.43
2019-05-21T01:56:54.200Z,9.30
2019-05-21T01:59:22.985Z,9.30
2019-05-21T02:01:51.542Z,10.13
2019-05-21T02:04:20.230Z,9.50
2019-05-21T02:06:49.431Z,10.70
2019-05-21T02:09:18.108Z,9.50
2019-05-21T02:11:46.659Z,8.88
2019-05-21T02:14:15.292Z,8.50
2019-05-21T02:16:43.904Z,8.40
2019-05-21T02:19:12.462Z,8.75
2019-05-21T02:21:41.093Z,9.20
2019-05-21T02:24:09.694Z,10.18
2019-05-21T02:26:38.282Z,10.40
2019-05-21T02:29:06.954Z,9.67
2019-05-21T02:31:35.549Z,9.83
2019-05-21T02:34:04.406Z,9.48
2019-05-21T02:36:33.029Z,9.48
2019-05-21T02:39:01.631Z,8.93
2019-05-21T02:41:30.290Z,8.83
2019-05-21T02:43:58.889Z,9.05
2019-05-21T02:46:27.555Z,7.67
2019-05-21T02:48:56.159Z,8.53
2019-05-21T02:51:25.508Z,8.33
2019-05-21T02:56:21.989Z,8.25
2019-05-21T02:58:50.646Z,7.60
2019-05-21T03:01:20.967Z,8.30
2019-05-21T03:03:50.099Z,7.87
2019-05-21T03:06:18.692Z,8.33
2019-05-21T03:08:47.293Z,9.73
2019-05-21T03:11:16.233Z,7.85
2019-05-21T03:13:44.819Z,8.10
2019-05-21T03:16:13.451Z,7.87
2019-05-21T03:18:42.017Z,7.78
2019-05-21T03:21:10.596Z,7.40
2019-05-21T03:23:39.223Z,7.47
2019-05-21T03:26:07.931Z,6.53
2019-05-21T03:28:36.723Z,7.37
2019-05-21T03:31:05.371Z,6.92
2019-05-21T03:33:33.954Z,6.37
2019-05-21T03:36:02.562Z,6.53
2019-05-21T03:38:31.331Z,10.13
2019-05-21T03:40:59.949Z,6.60
2019-05-21T03:43:28.698Z,6.37
2019-05-21T03:45:57.307Z,6.50
2019-05-21T03:48:25.846Z,6.10
2019-05-21T03:50:55.034Z,6.67
2019-05-21T03:53:23.646Z,5.50
2019-05-21T03:55:52.239Z,6.08
2019-05-21T03:58:20.818Z,6.05
2019-05-21T04:00:49.451Z,6.70
2019-05-21T04:03:19.133Z,8.18
2019-05-21T04:05:47.725Z,10.25
2019-05-21T04:08:16.289Z,6.72
2019-05-21T04:10:44.858Z,9.45
2019-05-21T04:13:13.460Z,8.55
2019-05-21T04:15:53.115Z,7.62
2019-05-21T04:18:36.027Z,6.90
2019-05-21T04:21:04.684Z,6.55
2019-05-21T04:23:33.383Z,6.10
2019-05-21T04:26:01.982Z,5.85
2019-05-21T04:28:30.576Z,5.28
2019-05-21T04:30:59.186Z,5.28
2019-05-21T04:33:27.741Z,5.40
2019-05-21T04:35:56.386Z,4.83
2019-05-21T04:38:24.915Z,5.00
2019-05-21T04:40:53.577Z,5.22
2019-05-21T04:43:22.361Z,4.92
2019-05-21T04:45:50.945Z,5.15
2019-05-21T04:48:19.582Z,5.10
2019-05-21T04:50:48.315Z,4.80
2019-05-21T04:53:16.864Z,5.10
2019-05-21T04:55:45.579Z,4.95
2019-05-21T04:58:14.211Z,5.03
2019-05-21T05:00:42.854Z,4.85
2019-05-21T05:03:11.475Z,5.08
2019-05-21T05:05:40.045Z,5.30
2019-05-21T05:08:08.645Z,4.50
2019-05-21T05:10:37.307Z,4.60
2019-05-21T05:13:06.001Z,4.90
2019-05-21T05:15:34.762Z,4.62
2019-05-21T05:18:03.378Z,4.62
2019-05-21T05:20:31.925Z,4.90
2019-05-21T05:23:00.519Z,4.05
2019-05-21T05:25:29.119Z,4.40
2019-05-21T05:27:57.711Z,4.28
2019-05-21T05:30:26.418Z,3.92
2019-05-21T05:32:54.987Z,4.00
2019-05-21T05:35:23.623Z,3.92
2019-05-21T05:37:52.182Z,4.15
2019-05-21T05:40:20.912Z,4.33
2019-05-21T05:42:49.587Z,4.37
2019-05-21T05:45:18.519Z,4.40
2019-05-21T05:47:47.148Z,4.10
2019-05-21T05:50:17.464Z,3.58
2019-05-21T05:52:46.085Z,3.55
2019-05-21T05:55:14.960Z,3.92
2019-05-21T05:57:43.651Z,4.08
2019-05-21T06:00:13.843Z,4.08
2019-05-21T06:02:42.501Z,4.28
2019-05-21T06:05:11.859Z,4.12
2019-05-21T06:07:40.442Z,4.12
2019-05-21T06:10:09.411Z,4.05
2019-05-21T06:12:37.995Z,3.65
2019-05-21T06:15:07.930Z,3.87
2019-05-21T06:17:36.718Z,3.90
2019-05-21T06:20:06.873Z,3.80
2019-05-21T06:22:35.527Z,3.80
2019-05-21T06:25:06.539Z,3.92
2019-05-21T06:27:35.615Z,4.08
2019-05-21T06:30:06.540Z,4.22
2019-05-21T06:32:35.190Z,4.10
2019-05-21T06:35:04.996Z,3.90
2019-05-21T06:37:33.568Z,4.58
2019-05-21T06:40:02.138Z,4.03
2019-05-21T06:42:30.739Z,4.08
2019-05-21T06:44:59.331Z,3.98
2019-05-21T06:47:28.047Z,3.77
2019-05-21T06:49:56.666Z,3.75
2019-05-21T06:52:25.387Z,3.22
2019-05-21T06:54:53.986Z,3.58
2019-05-21T06:57:22.661Z,3.25
2019-05-21T06:59:51.308Z,3.40
2019-05-21T07:02:19.876Z,2.98
2019-05-21T07:04:48.482Z,2.98
2019-05-21T07:07:17.065Z,2.95
2019-05-21T07:09:45.701Z,3.08
2019-05-21T07:12:14.470Z,2.87
2019-05-21T07:17:10.963Z,3.15
2019-05-21T07:19:39.494Z,3.33
2019-05-21T07:22:12.618Z,2.92
2019-05-21T07:24:38.460Z,3.42
2019-05-21T07:27:07.199Z,2.92
2019-05-21T07:29:35.876Z,3.60
2019-05-21T07:32:04.621Z,3.17
2019-05-21T07:37:01.258Z,3.37
2019-05-21T07:39:29.962Z,3.62
2019-05-21T07:41:58.510Z,3.35
2019-05-21T07:44:27.077Z,3.50
2019-05-21T07:46:55.687Z,3.72
2019-05-21T07:51:52.215Z,3.62
2019-05-21T07:56:48.834Z,3.80
2019-05-21T08:01:45.550Z,3.40
2019-05-21T08:04:14.242Z,3.27
2019-05-21T08:09:14.085Z,3.70
2019-05-21T08:11:41.087Z,3.45
2019-05-21T08:14:09.629Z,3.52
2019-05-21T08:16:38.351Z,3.33
2019-05-21T08:19:06.909Z,3.17
2019-05-21T08:21:35.478Z,3.42
2019-05-21T08:24:04.146Z,3.08
2019-05-21T08:29:00.574Z,3.23
2019-05-21T08:33:56.993Z,3.50
2019-05-21T08:38:53.385Z,3.47
2019-05-21T08:41:21.978Z,3.50
2019-05-21T08:43:50.617Z,3.55
2019-05-21T08:48:47.054Z,3.63
2019-05-21T08:51:16.584Z,3.92
2019-05-21T08:53:45.372Z,5.85
2019-05-21T08:56:14.249Z,3.50
2019-05-21T09:01:10.844Z,3.50
2019-05-21T09:03:39.581Z,3.67
2019-05-21T09:06:08.215Z,3.25
2019-05-21T09:08:36.839Z,3.33
2019-05-21T09:11:05.630Z,3.40
2019-05-21T09:16:02.113Z,3.98
2019-05-21T09:18:30.722Z,3.20
2019-05-21T09:20:59.403Z,3.00
2019-05-21T09:25:55.782Z,3.42
2019-05-21T09:28:24.381Z,3.12
2019-05-21T09:30:53.065Z,3.20
2019-05-21T09:35:49.598Z,3.43
2019-05-21T09:38:18.341Z,3.83
2019-05-21T09:43:14.971Z,3.45
2019-05-21T09:45:44.596Z,3.25
2019-05-21T09:48:13.147Z,3.75
2019-05-21T09:50:41.751Z,3.60
2019-05-21T09:53:10.307Z,3.70
2019-05-21T09:55:38.953Z,3.70
2019-05-21T09:58:09.252Z,3.40
2019-05-21T10:00:56.124Z,3.58
2019-05-21T10:03:28.906Z,3.50
2019-05-21T10:05:57.718Z,4.10
2019-05-21T10:10:54.103Z,3.60
2019-05-21T10:13:22.689Z,3.87
2019-05-21T10:15:51.359Z,3.72
2019-05-21T10:18:20.140Z,4.17
2019-05-21T10:20:48.718Z,3.65
2019-05-21T10:23:17.486Z,3.90
2019-05-21T10:25:46.304Z,3.85
2019-05-21T10:28:14.885Z,3.77
2019-05-21T10:30:43.522Z,4.08
2019-05-21T10:33:12.086Z,4.20
2019-05-21T10:35:40.822Z,4.83
2019-05-21T10:38:09.444Z,4.22
2019-05-21T10:40:38.153Z,3.80
2019-05-21T10:43:06.863Z,3.95
2019-05-21T10:45:35.571Z,4.20
2019-05-21T10:48:04.466Z,3.90
2019-05-21T10:50:33.050Z,3.83
2019-05-21T10:53:01.610Z,4.30
2019-05-21T10:55:30.249Z,4.00
2019-05-21T10:57:58.817Z,3.80
2019-05-21T11:00:28.472Z,3.98
2019-05-21T11:03:01.401Z,3.83
2019-05-21T11:05:40.776Z,3.75
2019-05-21T11:08:23.631Z,3.75
2019-05-21T11:10:40.250Z,3.70
2019-05-21T11:13:08.910Z,3.20
2019-05-21T11:15:37.672Z,3.65
2019-05-21T11:18:11.496Z,4.05
2019-05-21T11:20:36.546Z,4.22
2019-05-21T11:23:05.317Z,3.77
2019-05-21T11:25:33.957Z,3.65
2019-05-21T11:28:05.855Z,3.75
2019-05-21T11:30:33.170Z,3.50
2019-05-21T11:33:01.938Z,3.75
2019-05-21T11:35:30.678Z,4.10
2019-05-21T11:37:59.278Z,3.60
2019-05-21T11:40:28.376Z,4.10
2019-05-21T11:45:32.333Z,4.65
2019-05-21T11:47:55.269Z,4.00
2019-05-21T11:50:24.143Z,4.05
2019-05-21T11:52:52.816Z,3.65
2019-05-21T11:55:21.512Z,3.85
2019-05-21T11:57:50.075Z,3.80
2019-05-21T12:00:22.302Z,3.75
2019-05-21T12:02:51.086Z,3.55
2019-05-21T12:05:19.838Z,4.15
2019-05-21T12:07:48.635Z,4.20
2019-05-21T12:10:17.665Z,3.25
2019-05-21T12:15:14.793Z,3.62
2019-05-21T12:17:43.571Z,3.65
2019-05-21T12:20:12.995Z,3.58
2019-05-21T12:22:41.676Z,3.60
2019-05-21T12:25:10.548Z,4.10
2019-05-21T12:27:39.322Z,3.98
2019-05-21T12:30:08.599Z,3.98
2019-05-21T12:32:37.308Z,3.70
2019-05-21T12:35:06.554Z,4.47
2019-05-21T12:37:35.514Z,4.10
2019-05-21T12:40:06.580Z,3.67
2019-05-21T12:42:35.251Z,3.40
2019-05-21T12:45:04.178Z,3.92
2019-05-21T12:47:32.997Z,4.08
2019-05-21T12:50:01.707Z,3.70
2019-05-21T12:52:33.660Z,4.33
2019-05-21T12:55:00.762Z,3.58
2019-05-21T12:57:29.482Z,3.50
2019-05-21T12:59:58.045Z,4.20
2019-05-21T13:02:26.755Z,3.90
2019-05-21T13:04:55.346Z,4.28
2019-05-21T13:07:24.187Z,6.83
2019-05-21T13:09:53.046Z,3.90
2019-05-21T13:12:21.831Z,3.75
2019-05-21T13:14:50.626Z,3.62
2019-05-21T13:17:19.203Z,4.10
2019-05-21T13:19:47.844Z,3.92
2019-05-21T13:22:16.409Z,4.00
2019-05-21T13:24:45.011Z,3.70
2019-05-21T13:27:13.631Z,3.75
2019-05-21T13:29:42.370Z,4.15
2019-05-21T13:32:11.154Z,3.92
2019-05-21T13:34:39.792Z,3.58
2019-05-21T13:37:08.472Z,4.33
2019-05-21T13:39:49.309Z,3.87
2019-05-21T13:42:07.732Z,3.90
2019-05-21T13:44:36.278Z,4.28
2019-05-21T13:47:04.894Z,4.58
2019-05-21T13:49:33.558Z,4.50
2019-05-21T13:52:02.202Z,3.58
2019-05-21T13:54:30.921Z,5.65
2019-05-21T13:56:59.507Z,4.30
2019-05-21T13:59:28.333Z,4.00
2019-05-21T14:01:57.110Z,3.30
2019-05-21T14:04:25.875Z,3.45
2019-05-21T14:06:54.792Z,4.55
2019-05-21T14:09:23.861Z,4.80
2019-05-21T14:11:52.652Z,4.08
2019-05-21T14:14:21.428Z,3.33
2019-05-21T14:16:50.128Z,4.45
2019-05-21T14:19:18.829Z,3.65
2019-05-21T14:21:47.586Z,3.87
2019-05-21T14:24:16.297Z,3.92
2019-05-21T14:26:44.962Z,3.55
2019-05-21T14:29:13.578Z,4.33
2019-05-21T14:31:42.146Z,4.10
2019-05-21T14:34:10.958Z,3.80
2019-05-21T14:36:39.603Z,4.45
2019-05-21T14:39:10.179Z,5.85
2019-05-21T14:41:38.993Z,3.95
2019-05-21T14:44:07.854Z,4.33
2019-05-21T14:46:36.483Z,3.90
2019-05-21T14:49:05.142Z,5.85
2019-05-21T14:51:33.862Z,4.10
2019-05-21T14:54:05.842Z,4.85
2019-05-21T14:56:34.422Z,3.92
2019-05-21T14:59:03.063Z,4.22
2019-05-21T15:01:31.718Z,3.60
2019-05-21T15:04:00.459Z,3.67
2019-05-21T15:06:29.280Z,3.77
2019-05-21T15:08:57.881Z,5.17
2019-05-21T15:11:26.470Z,4.20
2019-05-21T15:13:55.073Z,3.92
2019-05-21T15:16:23.668Z,4.55
2019-05-21T15:18:52.303Z,2.87
2019-05-21T15:21:25.010Z,5.75
2019-05-21T15:23:53.735Z,5.90
2019-05-21T15:26:22.426Z,3.90
2019-05-21T15:28:51.128Z,3.90
2019-05-21T15:31:19.914Z,3.95
2019-05-21T15:33:48.709Z,3.40
2019-05-21T15:36:17.306Z,10.75
2019-05-21T15:38:50.635Z,3.85
2019-05-21T15:41:16.179Z,8.35
2019-05-21T15:43:44.743Z,8.80
2019-05-21T15:46:13.482Z,8.50
2019-05-21T15:48:42.108Z,9.50
2019-05-21T15:51:10.688Z,9.40
2019-05-21T15:53:39.301Z,9.30
2019-05-21T15:56:07.930Z,9.63
2019-05-21T15:58:36.530Z,8.48
2019-05-21T16:01:05.322Z,8.63
2019-05-21T16:03:33.939Z,8.28
2019-05-21T16:06:02.500Z,6.97
2019-05-21T16:08:31.120Z,7.80
2019-05-21T16:10:59.695Z,7.95
2019-05-21T16:13:28.387Z,8.45
2019-05-21T16:15:57.003Z,7.35
2019-05-21T16:18:25.595Z,7.33
2019-05-21T16:20:54.153Z,5.97
2019-05-21T16:23:22.717Z,11.73
2019-05-21T16:25:51.547Z,7.97
2019-05-21T16:28:20.204Z,5.95
2019-05-21T16:30:48.874Z,5.72
2019-05-21T16:33:17.537Z,6.40
2019-05-21T16:35:46.170Z,6.05
2019-05-21T16:38:15.000Z,6.45
2019-05-21T16:40:44.274Z,6.20
2019-05-21T16:43:12.969Z,5.62
2019-05-21T16:45:41.735Z,6.70
2019-05-21T16:48:10.413Z,6.45
2019-05-21T16:50:39.153Z,5.17
2019-05-21T16:53:08.227Z,7.12
2019-05-21T16:55:37.322Z,5.15
2019-05-21T17:00:34.089Z,8.93
2019-05-21T17:03:02.748Z,5.80
2019-05-21T17:05:31.402Z,7.03
2019-05-21T17:07:59.999Z,6.17
2019-05-21T17:10:29.137Z,6.47
2019-05-21T17:15:25.572Z,7.25
2019-05-21T17:17:54.150Z,5.50
2019-05-21T17:20:22.913Z,4.70
2019-05-21T17:22:51.526Z,4.55
2019-05-21T17:25:20.260Z,4.85
2019-05-21T17:27:49.084Z,4.22
2019-05-21T17:30:18.973Z,4.75
2019-05-21T17:32:47.582Z,4.20
2019-05-21T17:35:16.550Z,4.47
2019-05-21T17:37:45.208Z,4.30
2019-05-21T17:40:14.159Z,4.20
2019-05-21T17:42:43.338Z,4.62
2019-05-21T17:47:40.334Z,4.37
2019-05-21T17:50:09.760Z,4.85
2019-05-21T17:52:38.448Z,4.67
2019-05-21T17:55:07.815Z,4.85
2019-05-21T17:57:37.022Z,4.10
2019-05-21T18:05:04.800Z,4.53
2019-05-21T18:07:33.330Z,6.15
2019-05-21T18:10:02.806Z,7.83
2019-05-21T18:12:32.537Z,7.97
2019-05-21T18:15:01.587Z,8.58
2019-05-21T18:17:30.990Z,6.87
2019-05-21T18:22:30.329Z,6.42
2019-05-21T18:24:59.024Z,5.12
2019-05-21T18:27:28.000Z,7.42
2019-05-21T18:29:56.670Z,7.20
2019-05-21T18:32:25.437Z,12.47
2019-05-21T18:34:54.169Z,16.60
2019-05-21T18:37:23.147Z,16.73
2019-05-21T18:39:51.840Z,15.43
2019-05-21T18:42:22.600Z,21.60
2019-05-21T18:44:50.962Z,18.98
2019-05-21T18:47:19.554Z,21.33
2019-05-21T18:49:48.127Z,22.70
2019-05-21T18:52:16.830Z,26.93
2019-05-21T18:54:47.981Z,22.30
2019-05-21T18:57:16.401Z,22.15
2019-05-21T18:59:46.428Z,36.55
2019-05-21T19:02:15.651Z,24.32
2019-05-21T19:04:44.217Z,26.20
2019-05-21T19:07:13.191Z,26.57
2019-05-21T19:09:41.998Z,23.07
2019-05-21T19:12:10.802Z,24.72
2019-05-21T19:14:45.169Z,24.82
2019-05-21T19:17:09.872Z,24.07
2019-05-21T19:19:38.674Z,23.85
2019-05-21T19:22:07.463Z,23.12
2019-05-21T19:24:36.094Z,24.37
2019-05-21T19:27:04.888Z,24.43
2019-05-21T19:29:33.443Z,25.15
2019-05-21T19:32:02.124Z,24.77
2019-05-21T19:34:30.869Z,23.40
2019-05-21T19:36:59.461Z,24.45
2019-05-21T19:39:28.470Z,24.50
2019-05-21T19:41:57.362Z,25.50
2019-05-21T19:44:25.897Z,24.37
2019-05-21T19:46:54.736Z,24.20
2019-05-21T19:49:23.357Z,23.92
2019-05-21T19:51:52.265Z,20.45
2019-05-21T19:54:20.979Z,21.30
2019-05-21T19:56:49.646Z,17.05
2019-05-21T19:59:18.288Z,19.75
2019-05-21T20:01:47.282Z,17.82
2019-05-21T20:04:16.227Z,17.85
2019-05-21T20:06:45.236Z,18.92
2019-05-21T20:09:15.847Z,19.07
2019-05-21T20:11:44.761Z,18.45
2019-05-21T20:14:13.416Z,19.35
2019-05-21T20:16:42.344Z,20.95
2019-05-21T20:19:12.577Z,22.05
2019-05-21T20:21:41.485Z,21.82
2019-05-21T20:24:10.397Z,20.05
2019-05-21T20:26:39.481Z,20.82
2019-05-21T20:29:09.392Z,21.55
2019-05-21T20:31:39.913Z,21.50
2019-05-21T20:34:10.466Z,20.92
2019-05-21T20:36:40.833Z,21.33
2019-05-21T20:39:11.414Z,21.57
2019-05-21T20:41:40.979Z,23.15
2019-05-21T20:44:11.246Z,24.43
2019-05-21T20:46:41.009Z,23.45
2019-05-21T20:49:10.343Z,23.00
2019-05-21T20:54:08.428Z,22.93
2019-05-21T20:59:05.146Z,23.62
2019-05-21T21:01:34.521Z,24.45
2019-05-21T21:06:35.673Z,25.82
2019-05-21T21:09:07.413Z,26.48
2019-05-21T21:11:36.533Z,24.72
2019-05-21T21:14:17.521Z,24.02
2019-05-21T21:16:37.668Z,26.05
2019-05-21T21:19:06.360Z,22.52
2019-05-21T21:21:36.336Z,24.45
2019-05-21T21:24:06.686Z,23.30
2019-05-21T21:26:35.659Z,23.27
2019-05-21T21:29:04.735Z,23.87
2019-05-21T21:31:33.614Z,26.65
2019-05-21T21:34:02.350Z,27.65
2019-05-21T21:36:32.102Z,28.47
2019-05-21T21:39:00.673Z,27.98
2019-05-21T21:41:29.827Z,29.90
2019-05-21T21:43:58.662Z,27.50
2019-05-21T21:46:27.359Z,27.65
2019-05-21T21:48:56.728Z,26.60
2019-05-21T21:53:53.568Z,29.90
2019-05-21T21:56:22.489Z,29.23
2019-05-21T21:58:51.194Z,30.45
2019-05-21T22:01:36.083Z,28.60
2019-05-21T22:04:07.302Z,29.30
2019-05-21T22:06:39.470Z,29.65
2019-05-21T22:09:11.351Z,28.45
2019-05-21T22:11:40.349Z,24.80
2019-05-21T22:14:09.559Z,27.48
2019-05-21T22:16:38.347Z,29.37
2019-05-21T22:19:08.414Z,27.32
2019-05-21T22:21:38.224Z,30.12
2019-05-21T22:24:07.725Z,30.48
2019-05-21T22:26:36.631Z,28.40
2019-05-21T22:29:05.387Z,30.80
2019-05-21T22:31:34.070Z,29.52
2019-05-21T22:34:02.816Z,30.08
2019-05-21T22:36:31.766Z,29.72
2019-05-21T22:39:00.466Z,30.10
2019-05-21T22:41:29.146Z,31.33
2019-05-21T22:43:57.891Z,28.77
2019-05-21T22:46:26.482Z,28.15
2019-05-21T22:48:55.076Z,27.80
2019-05-21T22:51:23.644Z,29.65
2019-05-21T22:53:52.323Z,28.90
2019-05-21T22:56:21.097Z,28.80
2019-05-21T22:58:49.762Z,28.80
2019-05-21T23:01:19.440Z,28.15
2019-05-21T23:03:48.249Z,29.00
2019-05-21T23:06:17.114Z,28.55
2019-05-21T23:08:45.717Z,27.17
2019-05-21T23:11:14.329Z,26.45
2019-05-21T23:13:42.935Z,26.48
2019-05-21T23:16:12.124Z,28.10
2019-05-21T23:18:41.339Z,28.65
2019-05-21T23:21:11.164Z,29.15
2019-05-21T23:23:41.493Z,29.05
2019-05-21T23:26:10.245Z,31.33
2019-05-21T23:28:40.051Z,30.75
2019-05-21T23:31:10.419Z,27.93
2019-05-21T23:33:40.828Z,29.55
2019-05-21T23:36:09.705Z,34.10
2019-05-21T23:38:38.749Z,29.45
2019-05-21T23:41:08.810Z,27.62
2019-05-21T23:43:38.245Z,28.25
2019-05-21T23:48:35.597Z,27.82
2019-05-21T23:51:04.983Z,29.05
2019-05-21T23:56:02.056Z,28.65
2019-05-21T23:58:30.987Z,28.25
